Flight Track Log - Related Links

Times and Time Zones

All times are in EDT time to prevent confusion due to time zone crossing. See the GJS3706 flight status page for this flight to view local times or setup timezone preferences in your user account.

Time Position Orientation Groundspeed Altitude Reporting Facility
EDT Latitude Longitude Course Direction KTS MPH feet Rate Location/Type
Sat 05:09:30 PM 44.4172 -73.1842 255° West 163 188 3,900  Level Boston Center
Sat 05:10:31 PM 44.4019 -73.2769 257° West 194 223 6,000 2,521 Climbing Boston Center
Sat 05:11:00 PM 44.3738 -73.6669 253° West  Level FlightAware Approximate
Sat 05:11:29 PM 44.3889 -73.3783 260° West 240 276 8,900  Level Boston Center
Sat 05:12:00 PM 44.3529 -73.7970 259° West  Level FlightAware Approximate
Sat 05:12:30 PM 44.3733 -73.4828 258° West 272 313 10,900  Level Boston Center
Sat 05:13:00 PM 44.3341 -73.9277 259° West  Level FlightAware Approximate
Sat 05:13:30 PM 44.3533 -73.6014 257° West 305 351 12,900  Level Boston Center
Sat 05:14:00 PM 44.3100 -74.0567 255° West  Level FlightAware Approximate
Sat 05:14:28 PM 44.3378 -73.7114 259° West 325 374 14,900  Level Boston Center
Sat 05:15:29 PM 44.3175 -73.8386 257° West 332 382 16,700 1,884 Climbing Boston Center
Sat 05:16:29 PM 44.2992 -73.9686 259° West 337 388 18,700 1,850 Climbing Boston Center
Sat 05:17:29 PM 44.2764 -74.1044 257° West 347 399 20,400 1,672 Climbing Boston Center
Sat 05:18:31 PM 44.2533 -74.2575 258° West 361 415 22,100 1,613 Climbing Boston Center
Sat 05:19:28 PM 44.2300 -74.3958 257° West 368 423 23,600 1,412 Climbing Boston Center
Sat 05:20:30 PM 44.2089 -74.5369 258° West 373 429 24,900 1,131 Climbing Boston Center
Sat 05:21:30 PM 44.1853 -74.6867 258° West 383 441 25,900 1,017 Climbing Boston Center
Sat 05:22:28 PM 44.1592 -74.8419 257° West 401 461 26,900 1,017 Climbing Boston Center
Sat 05:23:28 PM 44.1347 -75.0031 258° West 416 479 27,900 992 Climbing Boston Center
Sat 05:24:29 PM 44.1081 -75.1667 257° West 427 491 28,900 976 Climbing Boston Center
Sat 05:25:31 PM 44.0814 -75.3275 257° West 434 499 29,900 1,008 Climbing Boston Center
Sat 05:26:28 PM 44.0539 -75.4967 257° West 434 499 30,900 1,017 Climbing Boston Center
Sat 05:27:29 PM 44.0244 -75.6625 256° West 440 506 31,900 984 Climbing Boston Center
Sat 05:28:30 PM 43.9947 -75.8283 256° West 445 512 32,900 992 Climbing Boston Center
Sat 05:29:30 PM 43.9711 -75.9886 258° West 445 512 33,900 1,000 Climbing Boston Center
Sat 05:30:30 PM 43.9469 -76.1547 259° West 445 512 34,900 992 Climbing Boston Center
Sat 05:31:31 PM 43.9375 -76.3183 265° West 445 512 35,900 1,008 Climbing Boston Center
Sat 05:32:29 PM 43.9233 -76.4847 263° West 440 506 36,900 1,017 Climbing Boston Center
Sat 05:33:29 PM 43.9114 -76.6425 264° West 434 499 37,900 667 Climbing Boston Center
Sat 05:34:08 PM 43.9000 -76.7333 260° West 410 472 38,000 61 Climbing Toronto Center
Sat 05:35:08 PM 43.8833 -76.8833 261° West 420 483 38,000  Level Toronto Center
Sat 05:36:08 PM 43.8667 -77.0500 262° West 430 495 38,000  Level Toronto Center
Sat 05:37:08 PM 43.8500 -77.2000 261° West 420 483 38,000  Level Toronto Center
Sat 05:38:08 PM 43.8333 -77.3833 263° West 430 495 38,000  Level Toronto Center
Sat 05:39:08 PM 43.8167 -77.5333 261° West 430 495 38,000  Level Toronto Center
Sat 05:40:08 PM 43.8000 -77.7000 262° West 430 495 38,000  Level Toronto Center
Sat 05:41:08 PM 43.7833 -77.8500 261° West 420 483 38,000  Level Toronto Center
Sat 05:42:08 PM 43.7667 -78.0167 262° West 420 483 38,000  Level Toronto Center
Sat 05:43:08 PM 43.7500 -78.1833 262° West 420 483 38,000  Level Toronto Center
Sat 05:44:08 PM 43.7333 -78.3333 261° West 420 483 38,000  Level Toronto Center
Sat 05:45:08 PM 43.7333 -78.5000 270° West 410 472 38,000  Level Toronto Center
Sat 05:46:08 PM 43.7167 -78.6667 262° West 410 472 38,000  Level Toronto Center
Sat 05:47:08 PM 43.7000 -78.8000 260° West 410 472 38,000  Level Toronto Center
Sat 05:48:08 PM 43.6833 -78.9667 262° West 410 472 38,000  Level Toronto Center
Sat 05:49:08 PM 43.6667 -79.1333 262° West 420 483 38,000  Level Toronto Center
Sat 05:50:08 PM 43.6500 -79.2833 261° West 410 472 38,000  Level Toronto Center
Sat 05:51:08 PM 43.6333 -79.4333 261° West 400 460 38,000  Level Toronto Center
Sat 05:52:08 PM 43.6167 -79.6167 263° West 420 483 38,000  Level Toronto Center
Sat 05:53:08 PM 43.6000 -79.7500 260° West 420 483 38,000  Level Toronto Center
Sat 05:54:08 PM 43.5833 -79.9167 262° West 410 472 38,000  Level Toronto Center
Sat 05:55:08 PM 43.5667 -80.0667 261° West 410 472 38,000  Level Toronto Center
Sat 05:56:08 PM 43.5500 -80.2333 262° West 410 472 38,000  Level Toronto Center
Sat 05:57:08 PM 43.5333 -80.3667 260° West 410 472 38,000  Level Toronto Center
Sat 05:58:08 PM 43.5167 -80.5333 262° West 400 460 38,000  Level Toronto Center
Sat 05:59:08 PM 43.5000 -80.6667 260° West 410 472 38,000  Level Toronto Center
Sat 06:00:08 PM 43.4667 -80.8333 255° West 400 460 38,000  Level Toronto Center
Sat 06:01:08 PM 43.4500 -80.9833 261° West 400 460 38,000  Level Toronto Center
Sat 06:02:08 PM 43.4333 -81.1500 262° West 400 460 38,000  Level Toronto Center
Sat 06:03:08 PM 43.4167 -81.2833 260° West 400 460 38,000  Level Toronto Center
Sat 06:04:08 PM 43.4000 -81.4167 260° West 400 460 38,000  Level Toronto Center
Sat 06:05:08 PM 43.3833 -81.5833 262° West 400 460 38,000  Level Toronto Center
Sat 06:06:08 PM 43.3667 -81.7500 262° West 400 460 38,000  Level Toronto Center
Sat 06:07:08 PM 43.3667 -81.8833 270° West 400 460 38,000  Level Toronto Center
Sat 06:08:08 PM 43.3167 -82.0333 245° Southwest 400 460 38,000  Level Toronto Center
Sat 06:09:08 PM 43.3167 -82.2000 270° West 400 460 38,000  Level Toronto Center
Sat 06:10:08 PM 43.3000 -82.3667 262° West 400 460 38,000  Level Toronto Center
Sat 06:11:08 PM 43.2833 -82.5000 260° West 400 460 38,000  Level Toronto Center
Sat 06:12:08 PM 43.2500 -82.6500 253° West 400 460 38,000  Level Toronto Center
Sat 06:13:08 PM 43.2167 -82.7833 251° West 390 449 38,000  Level Toronto Center
Sat 06:14:30 PM 43.1858 -82.9719 257° West 394 453 38,000  Level Cleveland Center
Sat 06:15:30 PM 43.1453 -83.1100 248° West 394 453 38,000  Level Cleveland Center
Sat 06:16:30 PM 43.1067 -83.2478 249° West 394 453 38,000  Level Cleveland Center
Sat 06:17:30 PM 43.0703 -83.3769 249° West 388 447 38,000 -250 Level Cleveland Center
Sat 06:18:30 PM 43.0336 -83.5117 250° West 388 447 37,500 -750 Descending Cleveland Center
Sat 06:19:30 PM 42.9947 -83.6489 249° West 388 447 36,500 -1,000 Descending Cleveland Center
Sat 06:20:30 PM 42.9597 -83.7892 251° West 388 447 35,500 -1,000 Descending Cleveland Center
Sat 06:21:30 PM 42.9472 -83.9361 263° West 388 447 34,500 -1,000 Descending Cleveland Center
Sat 06:22:30 PM 42.9322 -84.0883 262° West 394 453 33,500 -1,000 Descending Cleveland Center
Sat 06:23:30 PM 42.9169 -84.2433 262° West 407 468 32,500 -570 Descending Cleveland Center
Sat 06:25:08 PM 42.8917 -84.4986 262° West 420 483 32,000 -189 Descending Chicago Center
Sat 06:26:09 PM 42.8764 -84.6603 263° West 427 491 32,000  Level Chicago Center
Sat 06:27:11 PM 42.8581 -84.8247 261° West 435 501 32,000  Level Chicago Center
Sat 06:28:13 PM 42.8419 -84.9867 262° West 434 499 32,000 -439 Level Chicago Center
Sat 06:29:14 PM 42.8211 -85.1825 262° West 436 502 31,100 -1,268 Descending Chicago Center
Sat 06:30:16 PM 42.8036 -85.3386 261° West 421 484 29,400 -1,610 Descending Chicago Center
Sat 06:31:17 PM 42.7872 -85.4869 261° West 401 461 27,800 -1,561 Descending Chicago Center
Sat 06:32:19 PM 42.7606 -85.6389 257° West 408 470 26,200 -1,500 Descending Chicago Center
Sat 06:33:21 PM 42.7336 -85.7900 256° West 410 472 24,700 -1,463 Descending Chicago Center
Sat 06:34:22 PM 42.7072 -85.9350 256° West 396 456 23,200 -1,415 Descending Chicago Center
Sat 06:35:24 PM 42.6817 -86.0781 256° West 388 447 21,800 -1,317 Descending Chicago Center
Sat 06:36:25 PM 42.6561 -86.2169 256° West 380 437 20,500 -1,268 Descending Chicago Center
Sat 06:37:27 PM 42.6294 -86.3542 255° West 376 433 19,200 -1,317 Descending Chicago Center
Sat 06:38:28 PM 42.6017 -86.4992 255° West 390 449 17,800 -1,317 Descending Chicago Center
Sat 06:39:30 PM 42.5756 -86.6383 256° West 381 438 16,500 -1,415 Descending Chicago Center
Sat 06:40:31 PM 42.5419 -86.7997 254° West 374 430 14,900 -1,415 Descending Chicago Center
Sat 06:41:33 PM 42.5072 -86.9269 250° West 364 419 13,600 -1,268 Descending Chicago Center
Sat 06:42:34 PM 42.4708 -87.0500 248° West 355 409 12,300 -1,268 Descending Chicago Center
Sat 06:43:36 PM 42.4381 -87.1714 250° West 344 396 11,000 -1,122 Descending Chicago Center
Sat 06:44:37 PM 42.4039 -87.2939 249° West 349 402 10,000 -488 Descending Chicago Center
Sat 06:45:39 PM 42.3706 -87.4175 250° West 338 389 10,000  Level Chicago Center
Sat 06:46:40 PM 42.3358 -87.5331 248° West 335 386 10,000 -341 Level Chicago Center
Sat 06:47:42 PM 42.2747 -87.6019 220° Southwest 288 331 9,300 -1,171 Descending Chicago Center
Sat 06:48:43 PM 42.2147 -87.6653 218° Southwest 277 319 7,600 -1,122 Descending Chicago Center
Sat 06:49:45 PM 42.1453 -87.7386 218° Southwest 267 307 7,000 -383 Descending Chicago Center
Sat 06:50:17 PM 42.1167 -87.7667 216° Southwest 272 313 7,000  Level Chicago TRACON
Sat 06:51:17 PM 42.1000 -87.8667 257° West 271 312 7,000  Level Chicago TRACON
Sat 06:52:17 PM 42.1000 -87.9667 270° West 275 316 7,000  Level Chicago TRACON
Sat 06:53:17 PM 42.1000 -88.0500 270° West 222 255 7,000 -750 Level Chicago TRACON
Sat 06:54:17 PM 42.0833 -88.1167 251° West 216 249 5,500 -1,579 Descending Chicago TRACON
Sat 06:54:52 PM 42.0553 -88.1289 198° South 222 255 4,500 -1,688 Descending Chicago Center
Sat 06:55:53 PM 42.0008 -88.0750 144° Southeast 210 242 2,800 -1,171 Descending Chicago Center
Sat 06:56:55 PM 41.9844 -88.0181 111° Southeast 185 213 2,100 -634 Descending Chicago Center
Sat 06:57:56 PM 41.9836 -87.9694 91° East 149 171 1,500 -443 Descending Chicago Center
Sat 06:58:57 PM 41.9844 -87.9250 89° East 142 163 1,200 -295 Descending Chicago Center

Login

Don't have an account? Register now (free) for customized features, flight alerts, and more!